Time;durP1;ratioP1;P1;durP2;ratioP2;P2;SDS_P1;SDS_P2;PMS_P1;PMS_P2;Temp;Humidity;BMP_temperature;BMP_pressure;BME280_temperature;BME280_humidity;BME280_pressure;Samples;Min_cycle;Max_cycle;Signal;HPM_P1;HPM_P2
2022/11/01 00:00:00;;;;;;;17.07;11.63;;;12.90;99.90;;;;;;5057318;28;20444;-72
2022/11/01 00:02:47;;;;;;;17.20;12.20;;;13.00;99.90;;;;;;5066360;28;20767;-72
2022/11/01 00:05:33;;;;;;;19.37;11.70;;;13.00;99.90;;;;;;5068357;28;20417;-72
2022/11/01 00:08:19;;;;;;;17.80;12.97;;;12.90;99.90;;;;;;5071231;28;20409;-72
2022/11/01 00:11:06;;;;;;;23.63;12.70;;;12.90;99.90;;;;;;5052789;28;20434;-73
2022/11/01 00:13:52;;;;;;;24.43;13.73;;;12.90;99.90;;;;;;5051532;28;20414;-72
2022/11/01 00:16:38;;;;;;;19.27;13.20;;;12.80;99.90;;;;;;5052152;28;20423;-72
2022/11/01 00:19:23;;;;;;;21.03;14.10;;;12.80;99.90;;;;;;5053661;28;20430;-73
2022/11/01 00:22:10;;;;;;;19.93;15.23;;;12.80;99.90;;;;;;5051611;28;20478;-73
2022/11/01 00:24:55;;;;;;;25.33;12.80;;;12.80;99.90;;;;;;5065360;28;20417;-73
2022/11/01 00:27:41;;;;;;;24.77;12.83;;;12.80;99.90;;;;;;5071694;28;20763;-72
2022/11/01 00:30:27;;;;;;;17.23;14.00;;;12.90;99.90;;;;;;5069162;28;20429;-72
2022/11/01 00:33:12;;;;;;;15.17;13.40;;;12.90;99.90;;;;;;5071479;28;20500;-72
2022/11/01 00:36:01;;;;;;;21.50;14.20;;;12.90;99.90;;;;;;5071220;28;20943;-73
2022/11/01 00:38:51;;;;;;;21.43;14.00;;;12.90;99.90;;;;;;5068617;28;20821;-72
2022/11/01 00:41:36;;;;;;;23.53;14.30;;;12.90;99.90;;;;;;5068011;28;20531;-73
2022/11/01 00:44:22;;;;;;;22.47;14.07;;;12.90;99.90;;;;;;5070827;28;20534;-72
2022/11/01 00:47:07;;;;;;;17.70;13.00;;;12.90;99.90;;;;;;5069966;28;20397;-72
2022/11/01 00:49:53;;;;;;;20.30;12.63;;;13.00;99.90;;;;;;5053650;28;21128;-72
2022/11/01 00:52:39;;;;;;;30.13;14.00;;;13.00;99.90;;;;;;5050891;28;20569;-72
2022/11/01 00:55:25;;;;;;;20.90;14.00;;;12.90;99.90;;;;;;5073933;28;20433;-72
2022/11/01 00:58:11;;;;;;;24.27;14.17;;;13.00;99.90;;;;;;5075465;28;21406;-72
2022/11/01 01:00:57;;;;;;;19.67;13.77;;;12.90;99.90;;;;;;5057206;28;20419;-72
2022/11/01 01:03:43;;;;;;;22.83;13.70;;;12.90;99.90;;;;;;5057675;28;21023;-72
2022/11/01 01:06:28;;;;;;;17.00;13.20;;;13.00;99.90;;;;;;5057449;28;20420;-72
2022/11/01 01:09:14;;;;;;;20.93;12.83;;;13.00;99.90;;;;;;5068508;28;20451;-72
2022/11/01 01:12:01;;;;;;;17.63;12.73;;;13.00;99.90;;;;;;5077843;28;20766;-72
2022/11/01 01:14:47;;;;;;;27.30;13.73;;;13.00;99.90;;;;;;5077342;28;20496;-72
2022/11/01 01:17:32;;;;;;;21.80;13.00;;;13.00;99.90;;;;;;5076119;28;20492;-72
2022/11/01 01:20:19;;;;;;;24.73;13.70;;;13.00;99.90;;;;;;5058109;28;20390;-73
2022/11/01 01:23:04;;;;;;;16.63;13.23;;;13.00;99.90;;;;;;5057478;28;20461;-72
2022/11/01 01:25:50;;;;;;;23.43;13.50;;;13.00;99.90;;;;;;5070063;28;20525;-72
2022/11/01 01:28:37;;;;;;;22.47;13.20;;;13.00;99.90;;;;;;5075143;28;20446;-72
2022/11/01 01:31:23;;;;;;;27.53;13.63;;;13.00;99.90;;;;;;5076050;28;20487;-72
2022/11/01 01:34:09;;;;;;;26.63;13.27;;;13.10;99.90;;;;;;5076943;28;20421;-72
2022/11/01 01:36:54;;;;;;;21.93;13.53;;;13.00;99.90;;;;;;5077605;28;20868;-72
2022/11/01 01:39:40;;;;;;;26.70;13.97;;;13.10;99.90;;;;;;5060482;28;20451;-72
2022/11/01 01:42:29;;;;;;;21.97;13.33;;;13.00;99.90;;;;;;5057213;28;20631;-72
2022/11/01 01:45:34;;;;;;;21.00;13.60;;;13.00;99.90;;;;;;5058060;28;20422;-71
2022/11/01 01:48:26;;;;;;;27.90;14.57;;;13.00;99.90;;;;;;5068998;28;20413;-72
2022/11/01 01:51:14;;;;;;;24.80;14.17;;;13.00;99.90;;;;;;5057440;28;20933;-72
2022/11/01 01:54:00;;;;;;;23.00;14.60;;;12.90;99.90;;;;;;5063822;28;20430;-71
2022/11/01 01:56:45;;;;;;;22.13;14.87;;;12.90;99.90;;;;;;5069068;28;20557;-72
2022/11/01 01:59:32;;;;;;;19.73;13.93;;;12.90;99.90;;;;;;5076020;28;20421;-72
2022/11/01 02:02:20;;;;;;;23.03;13.53;;;13.00;99.90;;;;;;5077217;28;20888;-71
2022/11/01 02:05:11;;;;;;;22.97;13.70;;;13.00;99.90;;;;;;5076141;28;20821;-72
2022/11/01 02:07:57;;;;;;;22.53;13.13;;;13.00;99.90;;;;;;5072506;28;20441;-72
2022/11/01 02:10:43;;;;;;;20.00;14.00;;;13.00;99.90;;;;;;5073930;28;20939;-72
2022/11/01 02:13:30;;;;;;;17.73;14.20;;;13.10;99.90;;;;;;5074650;28;20521;-72
2022/11/01 02:16:30;;;;;;;19.83;12.27;;;13.20;99.90;;;;;;5073423;28;20409;-72
2022/11/01 02:19:54;;;;;;;24.07;14.23;;;13.20;99.90;;;;;;5072665;28;20489;-72
2022/11/01 02:23:05;;;;;;;21.23;13.60;;;13.20;99.90;;;;;;5054129;28;20475;-72
2022/11/01 02:26:09;;;;;;;20.27;13.37;;;13.20;99.90;;;;;;5072822;28;20423;-73
2022/11/01 02:29:12;;;;;;;20.37;13.20;;;13.20;99.90;;;;;;5071954;28;20440;-72
2022/11/01 02:32:13;;;;;;;19.63;14.17;;;13.20;99.90;;;;;;5073540;28;20401;-72
2022/11/01 02:35:03;;;;;;;23.57;14.20;;;13.20;99.90;;;;;;5073421;28;20381;-72
2022/11/01 02:37:53;;;;;;;20.77;12.63;;;13.10;99.90;;;;;;5071328;28;20458;-72
2022/11/01 02:40:46;;;;;;;27.47;13.07;;;13.10;99.90;;;;;;5067414;28;20393;-72
2022/11/01 02:43:38;;;;;;;19.03;13.03;;;13.00;99.90;;;;;;5069735;28;21001;-71
2022/11/01 02:49:35;;;;;;;20.07;14.63;;;13.00;99.90;;;;;;5070408;28;20939;-73
2022/11/01 02:52:24;;;;;;;19.67;12.97;;;12.90;99.90;;;;;;5066151;28;20460;-72
2022/11/01 02:55:28;;;;;;;23.83;13.93;;;13.00;99.90;;;;;;5069645;28;20469;-72
2022/11/01 02:58:19;;;;;;;17.40;14.47;;;13.00;99.90;;;;;;5067127;28;20570;-72
2022/11/01 03:01:13;;;;;;;22.13;13.40;;;13.00;99.90;;;;;;5064805;28;20409;-71
2022/11/01 03:04:01;;;;;;;22.50;14.67;;;13.00;99.90;;;;;;5066877;28;20527;-72
2022/11/01 03:06:55;;;;;;;20.70;13.60;;;13.00;99.90;;;;;;5069648;28;20516;-72
2022/11/01 03:09:41;;;;;;;17.10;12.97;;;13.10;99.90;;;;;;5065515;28;20405;-71
2022/11/01 03:12:32;;;;;;;12.80;9.40;;;13.10;99.90;;;;;;5070553;28;20469;-72
2022/11/01 03:15:24;;;;;;;23.00;11.43;;;13.50;99.90;;;;;;5065077;28;20436;-71
2022/11/01 03:18:14;;;;;;;26.20;11.53;;;13.80;99.90;;;;;;5064449;28;20924;-72
2022/11/01 03:21:14;;;;;;;22.90;10.40;;;14.10;99.90;;;;;;5068471;28;20449;-71
2022/11/01 03:24:08;;;;;;;18.90;10.50;;;14.30;99.90;;;;;;5067248;28;20445;-71
2022/11/01 03:27:03;;;;;;;21.63;11.90;;;14.50;99.90;;;;;;5064147;28;20454;-71
2022/11/01 03:29:58;;;;;;;24.33;11.07;;;14.60;99.90;;;;;;5064391;28;20432;-73
2022/11/01 03:32:47;;;;;;;23.57;10.53;;;14.70;99.90;;;;;;5068131;28;20568;-72
2022/11/01 03:35:37;;;;;;;30.03;11.87;;;14.80;99.90;;;;;;5069565;28;20581;-71
2022/11/01 03:38:26;;;;;;;16.23;10.57;;;14.80;99.90;;;;;;5066243;28;20422;-72
2022/11/01 03:41:16;;;;;;;14.13;11.20;;;14.80;99.90;;;;;;5071612;28;20479;-72
2022/11/01 03:44:03;;;;;;;17.30;11.27;;;14.80;99.90;;;;;;5070854;28;20802;-72
2022/11/01 03:46:50;;;;;;;30.33;10.43;;;14.80;99.90;;;;;;5064382;28;20454;-72
2022/11/01 03:49:36;;;;;;;18.80;9.67;;;14.80;99.90;;;;;;5052015;28;20792;-72
2022/11/01 03:52:21;;;;;;;21.80;11.67;;;14.80;99.90;;;;;;5052222;28;20533;-72
2022/11/01 03:55:18;;;;;;;21.70;11.47;;;14.80;99.90;;;;;;5067396;28;20397;-71
2022/11/01 03:58:06;;;;;;;19.83;11.70;;;14.80;99.90;;;;;;5055523;28;20926;-72
2022/11/01 04:00:54;;;;;;;22.43;12.13;;;14.80;99.90;;;;;;5051190;28;20616;-72
2022/11/01 04:03:40;;;;;;;31.27;11.47;;;14.80;99.90;;;;;;5051640;28;20994;-72
2022/11/01 04:06:26;;;;;;;22.90;11.20;;;14.70;99.90;;;;;;5054821;28;20455;-72
2022/11/01 04:09:11;;;;;;;23.53;12.57;;;14.70;99.90;;;;;;5051731;28;20567;-71
2022/11/01 04:11:57;;;;;;;20.00;11.20;;;14.70;99.90;;;;;;5051981;28;20485;-71
2022/11/01 04:21:16;;;;;;;17.83;10.13;;;14.60;99.90;;;;;;5051995;28;20411;-72
2022/11/01 04:24:01;;;;;;;22.97;11.70;;;14.60;99.90;;;;;;5058096;28;20985;-72
2022/11/01 04:26:47;;;;;;;34.00;12.07;;;14.60;99.90;;;;;;5055178;28;20551;-72
2022/11/01 04:29:33;;;;;;;17.70;10.87;;;14.60;99.90;;;;;;5050688;28;20475;-72
2022/11/01 04:32:20;;;;;;;24.03;12.70;;;14.60;99.90;;;;;;5051509;28;20545;-73
2022/11/01 04:35:06;;;;;;;22.80;11.40;;;14.70;99.90;;;;;;5051181;28;20423;-73
2022/11/01 04:37:57;;;;;;;23.73;11.90;;;14.70;99.90;;;;;;5052044;28;20386;-72
2022/11/01 04:40:43;;;;;;;27.73;12.10;;;14.70;99.90;;;;;;5051571;28;20420;-72
2022/11/01 04:43:28;;;;;;;19.67;11.23;;;14.70;99.90;;;;;;5065438;28;20559;-71
2022/11/01 04:46:14;;;;;;;16.40;10.80;;;14.70;99.90;;;;;;5069044;28;20582;-71
2022/11/01 04:49:01;;;;;;;18.30;10.53;;;14.80;99.90;;;;;;5063016;28;20400;-72
2022/11/01 04:51:46;;;;;;;16.60;12.00;;;14.90;99.90;;;;;;5071075;28;20469;-72
2022/11/01 04:54:32;;;;;;;25.80;11.70;;;14.90;99.90;;;;;;5070407;28;20525;-72
2022/11/01 04:57:23;;;;;;;25.93;11.23;;;14.90;99.90;;;;;;5054918;28;20500;-72
2022/11/01 05:00:11;;;;;;;28.37;11.63;;;15.00;99.90;;;;;;5051319;28;20440;-71
2022/11/01 05:03:02;;;;;;;26.67;11.57;;;15.00;99.90;;;;;;5051136;28;20446;-72
2022/11/01 05:05:49;;;;;;;21.17;10.87;;;15.00;99.90;;;;;;5057135;28;20451;-72
2022/11/01 05:08:34;;;;;;;22.00;11.73;;;15.10;99.90;;;;;;5071140;28;20940;-72
2022/11/01 05:11:24;;;;;;;16.43;10.97;;;15.10;99.90;;;;;;5071095;28;20401;-72
2022/11/01 05:14:09;;;;;;;21.00;11.03;;;15.10;99.90;;;;;;5070923;28;20584;-71
2022/11/01 05:16:55;;;;;;;20.40;10.63;;;15.10;99.90;;;;;;5054508;28;20427;-72
2022/11/01 05:19:41;;;;;;;13.20;9.30;;;15.00;99.90;;;;;;5051314;28;20498;-71
2022/11/01 05:22:28;;;;;;;17.40;9.83;;;15.00;99.90;;;;;;5050905;28;20447;-72
2022/11/01 05:25:14;;;;;;;25.63;10.27;;;15.00;99.90;;;;;;5064655;28;20417;-72
2022/11/01 05:28:00;;;;;;;18.60;7.83;;;15.00;99.90;;;;;;5071151;28;20548;-72
2022/11/01 05:30:46;;;;;;;18.43;7.83;;;15.10;99.90;;;;;;5070959;28;20438;-72
2022/11/01 05:33:31;;;;;;;16.07;6.30;;;15.10;99.90;;;;;;5070667;28;20521;-71
2022/11/01 05:36:17;;;;;;;10.93;7.20;;;15.20;99.90;;;;;;5068018;28;20450;-72
2022/11/01 05:39:04;;;;;;;17.87;6.47;;;15.20;99.90;;;;;;5071049;28;20422;-72
2022/11/01 05:41:49;;;;;;;15.33;5.90;;;15.10;99.90;;;;;;5073993;28;20422;-72
2022/11/01 05:44:35;;;;;;;9.87;5.57;;;15.20;99.90;;;;;;5072068;28;20485;-73
2022/11/01 05:47:21;;;;;;;18.07;6.63;;;15.20;99.90;;;;;;5074440;28;20554;-72
2022/11/01 05:50:07;;;;;;;10.00;5.40;;;15.20;99.90;;;;;;5074792;28;20422;-72
2022/11/01 05:52:53;;;;;;;11.93;6.83;;;15.30;99.90;;;;;;5074174;28;20500;-71
2022/11/01 05:55:40;;;;;;;14.63;7.30;;;15.20;99.90;;;;;;5064212;28;20549;-72
2022/11/01 05:58:25;;;;;;;12.53;7.60;;;15.20;99.90;;;;;;5074283;28;20438;-73
2022/11/01 06:01:11;;;;;;;13.13;7.10;;;15.20;99.90;;;;;;5070498;28;20417;-72
2022/11/01 06:04:00;;;;;;;15.40;8.10;;;15.20;99.90;;;;;;5059103;28;20498;-73
2022/11/01 06:06:46;;;;;;;14.60;7.53;;;15.20;99.90;;;;;;5071222;28;20484;-72
2022/11/01 06:09:32;;;;;;;15.30;8.80;;;15.10;99.90;;;;;;5069304;28;20627;-72
2022/11/01 06:12:19;;;;;;;13.73;8.37;;;15.10;99.90;;;;;;5072376;28;20589;-72
2022/11/01 06:15:05;;;;;;;14.83;8.70;;;15.20;99.90;;;;;;5066463;28;20496;-72
2022/11/01 06:17:55;;;;;;;12.87;7.50;;;15.20;99.90;;;;;;5067077;28;20938;-72
2022/11/01 06:20:41;;;;;;;13.87;8.00;;;15.20;99.90;;;;;;5071162;28;20432;-73
2022/11/01 06:23:27;;;;;;;15.50;8.07;;;15.20;99.90;;;;;;5063719;28;20474;-72
2022/11/01 06:26:12;;;;;;;14.03;8.77;;;15.20;99.90;;;;;;5068515;28;20496;-72
2022/11/01 06:29:01;;;;;;;17.77;9.80;;;15.10;99.90;;;;;;5070748;28;20500;-72
2022/11/01 06:31:47;;;;;;;18.40;9.70;;;15.10;99.90;;;;;;5066261;28;20460;-72
2022/11/01 06:34:33;;;;;;;14.63;8.30;;;15.00;99.90;;;;;;5070071;28;20520;-72
2022/11/01 06:37:18;;;;;;;16.47;8.60;;;14.90;99.90;;;;;;5072194;28;20422;-71
2022/11/01 06:40:05;;;;;;;15.77;9.30;;;14.90;99.90;;;;;;5072490;28;20915;-71
2022/11/01 06:42:51;;;;;;;13.13;8.00;;;14.90;99.90;;;;;;5067313;28;20481;-72
2022/11/01 06:45:38;;;;;;;11.17;7.93;;;14.90;99.90;;;;;;5068305;28;20761;-71
2022/11/01 06:48:23;;;;;;;14.57;8.77;;;14.90;99.90;;;;;;5070399;28;20424;-72
2022/11/01 06:51:09;;;;;;;20.60;10.43;;;15.00;99.90;;;;;;5072125;28;20421;-71
2022/11/01 06:53:54;;;;;;;13.97;8.73;;;14.90;99.90;;;;;;5064815;28;20461;-71
2022/11/01 06:56:40;;;;;;;20.30;8.43;;;14.90;99.90;;;;;;5069808;28;20432;-72
2022/11/01 06:59:26;;;;;;;17.00;9.90;;;14.90;99.90;;;;;;5070032;28;20514;-71
2022/11/01 07:02:13;;;;;;;11.73;8.57;;;14.90;99.90;;;;;;5070343;28;20492;-72
2022/11/01 07:04:58;;;;;;;19.23;9.00;;;15.00;99.90;;;;;;5063733;28;20513;-72
2022/11/01 07:07:44;;;;;;;15.70;7.80;;;14.90;99.90;;;;;;5071724;28;20454;-72
2022/11/01 07:10:30;;;;;;;14.03;7.50;;;14.90;99.90;;;;;;5066392;28;20421;-72
2022/11/01 07:13:15;;;;;;;18.80;8.70;;;14.90;99.90;;;;;;5067604;28;20515;-71
2022/11/01 07:16:02;;;;;;;12.77;7.17;;;14.90;99.90;;;;;;5063101;28;20508;-71
2022/11/01 07:18:50;;;;;;;14.33;7.50;;;14.90;99.90;;;;;;5070724;28;20784;-72
2022/11/01 07:21:36;;;;;;;11.00;6.80;;;14.90;99.90;;;;;;5069520;28;20455;-72
2022/11/01 07:24:22;;;;;;;13.20;8.00;;;15.00;99.90;;;;;;5063590;28;20463;-73
2022/11/01 07:27:08;;;;;;;11.03;6.50;;;15.00;99.90;;;;;;5069758;28;20478;-71
2022/11/01 07:29:53;;;;;;;14.37;7.50;;;15.00;99.90;;;;;;5064634;28;20525;-71
2022/11/01 07:32:39;;;;;;;11.13;6.10;;;15.00;99.90;;;;;;5069185;28;20437;-71
2022/11/01 07:35:26;;;;;;;9.57;6.27;;;15.10;99.90;;;;;;5066326;28;20834;-72
2022/11/01 07:38:12;;;;;;;11.90;5.63;;;15.10;99.90;;;;;;5069161;28;21160;-72
2022/11/01 07:40:58;;;;;;;17.13;7.90;;;15.10;99.90;;;;;;5068054;28;20425;-71
2022/11/01 07:43:43;;;;;;;9.33;6.73;;;15.10;99.90;;;;;;5066136;28;20482;-73
2022/11/01 07:46:31;;;;;;;12.70;6.90;;;15.10;99.90;;;;;;5068275;28;20483;-74
2022/11/01 07:49:16;;;;;;;11.90;7.30;;;15.10;99.90;;;;;;5068333;28;20470;-74
2022/11/01 07:52:03;;;;;;;16.23;7.37;;;15.20;99.90;;;;;;5071158;28;20450;-74
2022/11/01 07:54:49;;;;;;;14.63;7.87;;;15.20;99.90;;;;;;5066201;28;20577;-73
2022/11/01 07:57:37;;;;;;;12.80;9.27;;;15.20;99.90;;;;;;5068398;28;20633;-74
2022/11/01 08:00:23;;;;;;;10.67;7.20;;;15.30;99.90;;;;;;5068891;28;20792;-74
2022/11/01 08:03:11;;;;;;;8.77;5.50;;;15.30;99.90;;;;;;5067464;28;20482;-74
2022/11/01 08:05:56;;;;;;;10.13;4.93;;;15.40;99.90;;;;;;5067478;28;20922;-74
2022/11/01 08:08:44;;;;;;;9.97;5.23;;;15.40;99.90;;;;;;5070344;28;21009;-74
2022/11/01 08:11:30;;;;;;;8.53;5.40;;;15.40;99.90;;;;;;5068802;28;20527;-74
2022/11/01 08:14:16;;;;;;;15.23;5.03;;;15.50;99.90;;;;;;5065121;28;20587;-74
2022/11/01 08:17:01;;;;;;;8.80;4.80;;;15.50;99.90;;;;;;5069345;28;20655;-74
2022/11/01 08:19:47;;;;;;;8.87;5.20;;;15.60;99.90;;;;;;5065715;28;20425;-74
2022/11/01 08:22:32;;;;;;;11.90;4.90;;;15.70;99.90;;;;;;5067848;28;20557;-74
2022/11/01 08:25:20;;;;;;;11.07;6.20;;;15.60;99.90;;;;;;5069079;28;20497;-74
2022/11/01 08:28:08;;;;;;;9.80;3.80;;;15.70;99.90;;;;;;5066660;28;20573;-73
2022/11/01 08:30:54;;;;;;;11.43;4.70;;;15.70;99.90;;;;;;5062685;28;20439;-73
2022/11/01 08:33:40;;;;;;;8.13;4.90;;;15.70;99.90;;;;;;5066390;28;21029;-74
2022/11/01 08:36:25;;;;;;;12.80;4.60;;;15.70;99.90;;;;;;5069833;28;20417;-73
2022/11/01 08:39:11;;;;;;;6.53;4.23;;;15.80;99.90;;;;;;5066735;28;21673;-74
2022/11/01 08:41:59;;;;;;;6.30;4.30;;;15.80;99.90;;;;;;5069289;28;20412;-72
2022/11/01 08:44:45;;;;;;;11.70;4.07;;;15.80;99.90;;;;;;5063201;28;20459;-74
2022/11/01 08:47:31;;;;;;;6.40;4.03;;;15.90;99.90;;;;;;5064447;28;20421;-72
2022/11/01 08:50:18;;;;;;;6.97;4.63;;;15.90;99.90;;;;;;5067676;28;20971;-71
2022/11/01 08:53:08;;;;;;;6.20;4.43;;;15.90;99.90;;;;;;5064559;28;20445;-72
2022/11/01 08:55:55;;;;;;;8.47;4.10;;;15.90;99.90;;;;;;5066382;28;20418;-71
2022/11/01 08:58:42;;;;;;;5.30;3.57;;;15.90;99.90;;;;;;5068464;28;20796;-74
2022/11/01 09:01:28;;;;;;;6.27;3.90;;;15.90;99.90;;;;;;5069781;28;20425;-74
2022/11/01 09:04:14;;;;;;;9.43;3.90;;;15.90;99.90;;;;;;5061176;28;20453;-73
2022/11/01 09:07:00;;;;;;;5.70;3.80;;;15.90;99.90;;;;;;5067823;28;20533;-73
2022/11/01 09:09:46;;;;;;;8.70;4.03;;;15.90;99.90;;;;;;5071611;28;20413;-73
2022/11/01 09:12:31;;;;;;;6.50;3.87;;;15.90;99.90;;;;;;5070645;28;20964;-74
2022/11/01 09:15:19;;;;;;;12.10;3.80;;;15.80;99.90;;;;;;5069739;28;20461;-74
2022/11/01 09:18:07;;;;;;;7.87;3.73;;;15.80;99.90;;;;;;5071374;28;20817;-71
2022/11/01 09:20:54;;;;;;;7.10;4.20;;;15.80;99.90;;;;;;5074036;28;20451;-73
2022/11/01 09:23:39;;;;;;;8.47;4.47;;;15.80;99.90;;;;;;5068836;28;20482;-73
2022/11/01 09:26:27;;;;;;;10.83;4.20;;;15.80;99.90;;;;;;5074083;28;20939;-73
2022/11/01 09:29:12;;;;;;;9.13;3.83;;;15.80;99.90;;;;;;5063479;28;20444;-72
2022/11/01 09:31:59;;;;;;;8.20;4.23;;;15.80;99.90;;;;;;5074757;28;20417;-74
2022/11/01 09:34:45;;;;;;;8.60;4.47;;;15.80;99.90;;;;;;5073817;28;20473;-72
2022/11/01 09:37:31;;;;;;;8.17;4.00;;;15.80;99.90;;;;;;5071919;28;20764;-73
2022/11/01 09:40:17;;;;;;;7.87;4.10;;;15.80;99.90;;;;;;5073024;28;20397;-73
2022/11/01 09:43:06;;;;;;;21.03;5.57;;;15.80;99.90;;;;;;5068312;28;20449;-73
2022/11/01 09:45:53;;;;;;;9.33;5.17;;;15.80;99.90;;;;;;5067902;28;20405;-73
2022/11/01 09:48:42;;;;;;;9.80;6.57;;;15.90;99.90;;;;;;5070299;28;20560;-72
2022/11/01 09:51:29;;;;;;;8.53;5.53;;;15.90;99.90;;;;;;5071881;28;20469;-73
2022/11/01 09:54:14;;;;;;;6.80;3.40;;;15.90;99.90;;;;;;5073616;28;20413;-73
2022/11/01 09:57:13;;;;;;;5.30;2.43;;;15.80;99.90;;;;;;5074136;28;20425;-73
2022/11/01 10:00:05;;;;;;;3.97;2.43;;;15.50;99.90;;;;;;5071955;28;20427;-73
2022/11/01 10:03:32;;;;;;;7.60;3.27;;;15.30;99.90;;;;;;5071256;28;20462;-73
2022/11/01 10:06:23;;;;;;;3.43;1.87;;;15.10;99.90;;;;;;5070095;28;20431;-74
2022/11/01 10:09:18;;;;;;;3.73;1.77;;;14.80;99.90;;;;;;5069161;28;20636;-73
2022/11/01 10:12:16;;;;;;;7.00;1.70;;;14.70;99.90;;;;;;5073362;28;20430;-73
2022/11/01 10:15:15;;;;;;;6.90;2.83;;;14.60;99.90;;;;;;5062549;28;20446;-73
2022/11/01 10:18:14;;;;;;;4.23;1.60;;;14.50;99.90;;;;;;5063993;28;20422;-73
2022/11/01 10:21:04;;;;;;;7.83;1.70;;;14.50;99.90;;;;;;5070369;28;20479;-70
2022/11/01 10:23:53;;;;;;;3.23;1.43;;;14.60;99.90;;;;;;5067331;28;20508;-74
2022/11/01 10:26:43;;;;;;;8.40;2.00;;;14.60;99.90;;;;;;5065877;28;20424;-74
2022/11/01 10:29:33;;;;;;;8.77;2.10;;;14.60;99.90;;;;;;5067921;28;20456;-73
2022/11/01 10:32:27;;;;;;;6.40;1.70;;;14.50;99.90;;;;;;5065880;28;20471;-73
2022/11/01 10:35:16;;;;;;;5.93;1.60;;;14.50;99.90;;;;;;5068423;28;20862;-71
2022/11/01 10:38:08;;;;;;;5.57;2.07;;;14.60;99.90;;;;;;5058051;28;20471;-71
2022/11/01 10:41:00;;;;;;;3.70;1.63;;;14.60;99.90;;;;;;5067845;28;20474;-71
2022/11/01 10:43:49;;;;;;;2.50;1.50;;;14.60;99.90;;;;;;5068459;28;20988;-73
2022/11/01 10:46:41;;;;;;;9.53;1.87;;;14.60;99.90;;;;;;5066466;28;20460;-72
2022/11/01 10:49:31;;;;;;;6.57;1.80;;;14.70;99.90;;;;;;5067994;28;20439;-71
2022/11/01 10:52:21;;;;;;;5.57;1.63;;;14.80;99.90;;;;;;5073213;28;20994;-71
2022/11/01 10:55:12;;;;;;;2.90;1.10;;;14.90;99.90;;;;;;5069697;28;20565;-73
2022/11/01 10:58:03;;;;;;;7.73;1.60;;;14.90;99.90;;;;;;5068817;28;20458;-73
2022/11/01 11:00:49;;;;;;;9.57;2.13;;;15.10;99.90;;;;;;5065833;28;20414;-72
2022/11/01 11:03:34;;;;;;;4.60;1.37;;;15.30;99.90;;;;;;5070896;28;21005;-73
2022/11/01 11:06:20;;;;;;;6.53;1.30;;;15.40;99.90;;;;;;5066669;28;21070;-73
2022/11/01 11:09:06;;;;;;;4.17;1.60;;;15.50;99.90;;;;;;5069489;28;20433;-73
2022/11/01 11:11:55;;;;;;;3.30;1.40;;;15.60;99.90;;;;;;5069620;28;20956;-73
2022/11/01 11:14:42;;;;;;;6.63;1.73;;;15.70;99.90;;;;;;5070455;28;20588;-73
2022/11/01 11:17:34;;;;;;;7.23;1.10;;;15.80;99.90;;;;;;5067346;28;20425;-73
2022/11/01 11:20:21;;;;;;;8.57;1.73;;;15.90;99.90;;;;;;5071110;28;20468;-73
2022/11/01 11:23:11;;;;;;;5.90;1.40;;;16.00;99.90;;;;;;5067730;28;20418;-74
2022/11/01 11:26:02;;;;;;;14.13;1.53;;;16.00;99.90;;;;;;5063376;28;20837;-71
2022/11/01 11:28:51;;;;;;;3.63;1.10;;;16.10;99.90;;;;;;5056224;28;21042;-74
2022/11/01 11:31:38;;;;;;;12.23;1.63;;;16.20;99.90;;;;;;5071428;28;20834;-73
2022/11/01 11:34:28;;;;;;;3.40;1.30;;;16.30;99.90;;;;;;5069422;28;20393;-73
2022/11/01 11:37:20;;;;;;;6.57;1.40;;;16.40;99.90;;;;;;5057996;28;20430;-74
2022/11/01 11:40:19;;;;;;;3.40;1.23;;;16.50;99.90;;;;;;5051231;28;20804;-74
2022/11/01 11:43:22;;;;;;;3.97;1.20;;;16.50;99.90;;;;;;5052486;28;20464;-73
2022/11/01 11:46:14;;;;;;;4.90;1.73;;;16.60;99.90;;;;;;5058103;28;20491;-74
2022/11/01 11:49:05;;;;;;;4.33;1.60;;;16.70;99.90;;;;;;5070851;28;20423;-73
2022/11/01 11:51:52;;;;;;;9.73;1.67;;;16.80;99.90;;;;;;5071905;28;20849;-74
2022/11/01 11:54:42;;;;;;;10.47;1.77;;;17.00;99.90;;;;;;5070967;28;20434;-73
2022/11/01 11:57:29;;;;;;;4.27;1.43;;;17.20;99.90;;;;;;5057011;28;20460;-74
2022/11/01 12:00:22;;;;;;;3.00;1.37;;;17.40;99.90;;;;;;5051740;28;20401;-74
2022/11/01 12:03:13;;;;;;;4.83;1.30;;;17.50;99.90;;;;;;5052130;28;21018;-73
2022/11/01 12:06:05;;;;;;;3.90;1.30;;;17.70;99.90;;;;;;5052989;28;20826;-74
2022/11/01 12:08:53;;;;;;;4.33;1.30;;;17.80;99.90;;;;;;5052221;28;20946;-73
2022/11/01 12:11:40;;;;;;;7.90;2.10;;;18.00;99.90;;;;;;5052115;28;20418;-74
2022/11/01 12:14:28;;;;;;;4.53;2.53;;;18.20;99.90;;;;;;5052142;28;20899;-74
2022/11/01 12:17:31;;;;;;;6.50;1.80;;;18.40;99.90;;;;;;5054031;28;20407;-74
2022/11/01 12:20:19;;;;;;;5.47;1.37;;;18.60;99.90;;;;;;5052294;28;20419;-74
2022/11/01 12:23:11;;;;;;;4.70;1.13;;;18.70;99.90;;;;;;5052561;28;20418;-74
2022/11/01 12:25:59;;;;;;;8.40;1.50;;;18.90;99.90;;;;;;5058939;28;20451;-74
2022/11/01 12:28:51;;;;;;;6.17;1.77;;;19.10;99.90;;;;;;5072320;28;20538;-73
2022/11/01 12:31:41;;;;;;;3.47;1.47;;;19.20;99.90;;;;;;5058581;28;21114;-73
2022/11/01 12:34:32;;;;;;;8.93;1.60;;;19.40;99.90;;;;;;5065412;28;20450;-73
2022/11/01 12:37:20;;;;;;;4.77;1.30;;;19.40;94.90;;;;;;5068246;28;20433;-74
2022/11/01 12:40:16;;;;;;;12.70;1.50;;;19.50;91.70;;;;;;5064181;28;20560;-70
2022/11/01 12:43:09;;;;;;;4.77;1.40;;;19.50;91.10;;;;;;5060871;28;20616;-74
2022/11/01 12:46:01;;;;;;;6.13;1.57;;;19.70;89.20;;;;;;5060292;28;20449;-74
2022/11/01 12:48:54;;;;;;;4.13;1.20;;;19.70;87.60;;;;;;5065844;28;20428;-74
2022/11/01 12:51:44;;;;;;;3.60;1.40;;;19.70;83.70;;;;;;5065055;28;20525;-74
2022/11/01 12:54:38;;;;;;;5.50;1.30;;;19.80;84.20;;;;;;5067035;28;20971;-74
2022/11/01 12:57:24;;;;;;;6.50;1.70;;;19.90;85.10;;;;;;5061464;28;20455;-71
2022/11/01 13:00:15;;;;;;;2.77;1.03;;;19.90;79.80;;;;;;5060465;28;20422;-74
2022/11/01 13:03:19;;;;;;;3.40;1.10;;;19.90;80.30;;;;;;5060677;28;20470;-74
2022/11/01 13:06:17;;;;;;;7.07;1.20;;;20.00;75.20;;;;;;5066089;28;20794;-73
2022/11/01 13:09:10;;;;;;;4.90;1.57;;;19.80;77.10;;;;;;5064412;28;20436;-74
2022/11/01 13:12:02;;;;;;;4.17;1.83;;;20.00;75.80;;;;;;5068008;28;20446;-72
2022/11/01 13:15:01;;;;;;;4.53;1.13;;;20.00;79.00;;;;;;5065676;28;20501;-74
2022/11/01 13:17:54;;;;;;;7.60;1.67;;;20.00;75.00;;;;;;5064606;28;20470;-74
2022/11/01 13:20:50;;;;;;;4.40;1.30;;;20.20;79.10;;;;;;5062749;28;20557;-72
2022/11/01 13:23:37;;;;;;;6.40;1.80;;;20.30;76.50;;;;;;5060663;28;20470;-74
2022/11/01 13:26:26;;;;;;;11.00;5.40;;;20.40;71.20;;;;;;5065631;28;20505;-74
2022/11/01 13:29:16;;;;;;;15.50;8.80;;;20.30;78.60;;;;;;5067169;28;20450;-73
2022/11/01 13:32:12;;;;;;;6.83;3.43;;;20.20;80.30;;;;;;5064943;28;20861;-73
2022/11/01 13:35:35;;;;;;;3.30;1.47;;;20.30;78.10;;;;;;5068583;28;20528;-74
2022/11/01 13:38:29;;;;;;;22.70;8.63;;;20.50;72.50;;;;;;5066358;28;20451;-74
2022/11/01 13:41:21;;;;;;;16.47;7.10;;;20.40;70.00;;;;;;5068496;28;20866;-74
2022/11/01 13:44:15;;;;;;;8.40;3.20;;;20.40;66.40;;;;;;5066007;28;20500;-72
2022/11/01 13:47:33;;;;;;;9.33;2.80;;;20.60;64.70;;;;;;5061879;28;20520;-73
2022/11/01 13:50:47;;;;;;;12.70;4.33;;;20.70;60.80;;;;;;5067425;28;20450;-73
2022/11/01 13:53:35;;;;;;;7.70;2.57;;;20.40;63.90;;;;;;5065893;28;20470;-72
2022/11/01 13:56:26;;;;;;;5.63;1.13;;;19.70;64.70;;;;;;5066396;28;20466;-72
2022/11/01 13:59:28;;;;;;;3.70;1.20;;;19.20;68.00;;;;;;5067332;28;20455;-72
2022/11/01 14:02:54;;;;;;;4.47;1.10;;;18.90;75.40;;;;;;5069191;28;20469;-72
2022/11/01 14:05:43;;;;;;;9.30;2.87;;;18.60;83.10;;;;;;5067838;28;20437;-72
2022/11/01 14:08:37;;;;;;;12.13;4.10;;;18.40;84.90;;;;;;5069303;28;20529;-72
2022/11/01 14:11:45;;;;;;;46.70;17.63;;;18.10;85.10;;;;;;5070326;28;20489;-73
2022/11/01 14:14:52;;;;;;;23.07;10.30;;;17.90;89.70;;;;;;5071542;28;20820;-72
2022/11/01 14:17:48;;;;;;;24.30;7.37;;;17.80;93.90;;;;;;5067877;28;20461;-72
2022/11/01 14:20:50;;;;;;;28.17;12.50;;;17.60;96.10;;;;;;5071143;28;20441;-72
2022/11/01 14:23:58;;;;;;;21.17;12.10;;;17.40;99.90;;;;;;5067287;28;20999;-72
2022/11/01 14:27:03;;;;;;;9.30;3.30;;;17.40;99.90;;;;;;5069501;28;21110;-72
2022/11/01 14:29:51;;;;;;;10.57;2.73;;;17.30;99.90;;;;;;5065840;28;20425;-72
2022/11/01 14:32:37;;;;;;;12.57;5.80;;;17.40;99.90;;;;;;5071223;28;20619;-72
2022/11/01 14:35:27;;;;;;;11.20;4.90;;;17.20;99.90;;;;;;5068568;28;20573;-72
2022/11/01 14:38:17;;;;;;;11.10;5.17;;;17.30;99.90;;;;;;5066710;28;20528;-72